Time;durP1;ratioP1;P1;durP2;ratioP2;P2;SDS_P1;SDS_P2;PMS_P1;PMS_P2;Temp;Humidity;BMP_temperature;BMP_pressure;BME280_temperature;BME280_humidity;BME280_pressure;Samples;Min_cycle;Max_cycle;Signal;HPM_P1;HPM_P2
2022/10/30 03:01:29;;;;;;;28.90;19.00;;;;;;;12.65;83.67;100424.96;100867;1269;109024;-77
2022/10/30 03:03:57;;;;;;;28.70;19.10;;;;;;;12.66;83.88;100426.16;99377;1292;97195;-77
2022/10/30 03:06:25;;;;;;;29.90;18.00;;;;;;;12.67;83.75;100431.67;99525;1293;139909;-77
2022/10/30 03:08:52;;;;;;;26.70;18.60;;;;;;;12.70;83.85;100433.49;99636;1299;96437;-77
2022/10/30 03:11:20;;;;;;;27.70;18.90;;;;;;;12.74;83.82;100433.89;99664;1303;109074;-77
2022/10/30 03:13:49;;;;;;;29.60;18.50;;;;;;;12.76;83.74;100438.56;99543;1299;138316;-76
2022/10/30 03:16:36;;;;;;;26.80;18.90;;;;;;;12.75;83.68;100437.34;99539;1292;98244;-76
2022/10/30 03:19:21;;;;;;;29.30;18.40;;;;;;;12.77;83.61;100443.04;99498;1292;139848;-77
2022/10/30 03:21:48;;;;;;;25.90;17.80;;;;;;;12.79;83.62;100447.49;99579;1289;96473;-77
2022/10/30 03:24:15;;;;;;;28.60;18.30;;;;;;;12.80;83.71;100451.64;99578;1292;138826;-77
2022/10/30 03:26:44;;;;;;;28.50;18.10;;;;;;;12.82;83.60;100451.39;99652;1286;108057;-77
2022/10/30 03:29:10;;;;;;;26.10;16.60;;;;;;;12.83;83.48;100452.95;99520;1289;97547;-77
2022/10/30 03:31:38;;;;;;;27.50;17.10;;;;;;;12.82;83.31;100455.59;99549;1287;139824;-77
2022/10/30 03:34:41;;;;;;;28.20;17.60;;;;;;;12.84;83.40;100456.54;99677;1285;96592;-77
2022/10/30 03:37:08;;;;;;;30.40;17.80;;;;;;;12.84;83.30;100457.25;99447;1285;138526;-78
2022/10/30 03:39:53;;;;;;;27.40;17.30;;;;;;;12.84;83.24;100454.11;99675;1298;108854;-78
2022/10/30 03:42:20;;;;;;;25.60;16.60;;;;;;;12.83;83.28;100450.12;99542;1286;139950;-77
2022/10/30 03:44:48;;;;;;;30.00;17.60;;;;;;;12.85;83.20;100452.69;101202;1292;106844;-78
2022/10/30 03:47:33;;;;;;;27.00;16.90;;;;;;;12.89;83.27;100453.36;100854;1295;138552;-78
2022/10/30 03:50:00;;;;;;;24.80;16.90;;;;;;;12.91;83.12;100450.52;99721;1292;109975;-78
2022/10/30 03:52:45;;;;;;;32.70;18.30;;;;;;;12.91;83.10;100446.84;99613;1295;106080;-78
2022/10/30 03:55:12;;;;;;;31.40;18.60;;;;;;;12.90;82.98;100446.86;99479;1291;138780;-78
2022/10/30 03:57:57;;;;;;;26.80;16.60;;;;;;;12.88;82.99;100449.92;99637;1292;106100;-77
2022/10/30 04:00:24;;;;;;;26.80;17.20;;;;;;;12.86;82.96;100452.79;99411;1288;140411;-78
2022/10/30 04:02:54;;;;;;;27.90;16.40;;;;;;;12.86;82.94;100455.95;99754;1293;108308;-78
2022/10/30 04:05:40;;;;;;;24.00;16.90;;;;;;;12.87;83.08;100458.70;99362;1302;138583;-78
2022/10/30 04:08:11;;;;;;;31.90;17.30;;;;;;;12.88;83.18;100461.27;99723;1292;97073;-78
2022/10/30 04:10:41;;;;;;;25.20;16.10;;;;;;;12.90;83.13;100456.30;100669;1292;108234;-77
2022/10/30 04:13:12;;;;;;;30.50;16.00;;;;;;;12.91;83.00;100456.25;99355;1283;139333;-78
2022/10/30 04:16:02;;;;;;;27.70;16.00;;;;;;;12.91;82.86;100450.86;99687;1293;109800;-78
2022/10/30 04:18:32;;;;;;;28.10;17.60;;;;;;;12.93;82.88;100450.96;99452;1295;137881;-78
2022/10/30 04:21:00;;;;;;;26.30;16.60;;;;;;;12.93;82.88;100449.58;99723;1285;96405;-78
2022/10/30 04:23:45;;;;;;;29.00;17.40;;;;;;;12.93;82.92;100446.08;99492;1288;138268;-78
2022/10/30 04:26:29;;;;;;;23.80;16.60;;;;;;;12.93;82.96;100446.61;99587;1293;96514;-78
2022/10/30 04:28:57;;;;;;;28.40;16.70;;;;;;;12.91;82.77;100449.45;99539;1295;109775;-78
2022/10/30 04:31:24;;;;;;;24.90;16.80;;;;;;;12.91;82.90;100445.26;99513;1293;140214;-78
2022/10/30 04:33:51;;;;;;;27.30;16.90;;;;;;;12.91;82.81;100440.36;99563;1295;96486;-78
2022/10/30 04:36:35;;;;;;;26.80;17.70;;;;;;;12.91;82.91;100441.08;99605;1292;138270;-78
2022/10/30 04:39:20;;;;;;;24.20;16.30;;;;;;;12.89;82.84;100434.71;99607;1292;96472;-77
2022/10/30 04:41:48;;;;;;;23.10;16.60;;;;;;;12.88;82.82;100435.80;99529;1292;138624;-78
2022/10/30 04:44:19;;;;;;;23.40;16.50;;;;;;;12.87;82.86;100432.00;99479;1292;106704;-78
2022/10/30 04:46:47;;;;;;;27.80;17.70;;;;;;;12.86;82.90;100427.52;99656;1292;96745;-78
2022/10/30 04:49:13;;;;;;;28.90;18.20;;;;;;;12.85;82.96;100423.35;99512;1296;139262;-78
2022/10/30 04:51:40;;;;;;;26.40;17.40;;;;;;;12.84;83.00;100419.89;99559;1295;96376;-78
2022/10/30 04:54:27;;;;;;;27.40;17.40;;;;;;;12.83;82.83;100421.16;99506;1295;138791;-78
2022/10/30 04:56:54;;;;;;;23.10;17.00;;;;;;;12.79;82.85;100415.92;99576;1288;106308;-78
2022/10/30 04:59:39;;;;;;;29.70;18.10;;;;;;;12.77;82.97;100419.48;99522;1292;138641;-78
2022/10/30 05:02:06;;;;;;;26.80;17.70;;;;;;;12.74;83.02;100417.30;99611;1290;107385;-78
2022/10/30 05:04:33;;;;;;;24.30;17.00;;;;;;;12.69;83.09;100421.67;99740;1286;96517;-78
2022/10/30 05:07:01;;;;;;;28.60;18.20;;;;;;;12.64;83.08;100425.89;99672;1286;138399;-78
2022/10/30 05:09:28;;;;;;;25.70;17.20;;;;;;;12.63;83.37;100436.23;99605;1288;107263;-78
2022/10/30 05:11:55;;;;;;;26.60;16.50;;;;;;;12.62;83.48;100439.23;99624;1289;139524;-78
2022/10/30 05:14:30;;;;;;;23.20;16.00;;;;;;;12.62;83.73;100437.48;99546;1293;109257;-78
2022/10/30 05:16:57;;;;;;;27.80;16.80;;;;;;;12.65;83.87;100436.66;99651;1292;96475;-79
2022/10/30 05:19:25;;;;;;;24.50;17.00;;;;;;;12.69;83.92;100441.73;99626;1285;140252;-77
2022/10/30 05:21:54;;;;;;;28.50;17.80;;;;;;;12.75;83.94;100452.20;99605;1293;107586;-78
2022/10/30 05:24:21;;;;;;;27.30;17.20;;;;;;;12.75;83.84;100454.09;99628;1292;138037;-78
2022/10/30 05:27:06;;;;;;;27.70;18.40;;;;;;;12.76;83.72;100454.59;99650;1289;106111;-78
2022/10/30 05:29:34;;;;;;;23.90;17.20;;;;;;;12.76;83.89;100455.83;99551;1290;139240;-78
2022/10/30 05:32:01;;;;;;;28.20;17.60;;;;;;;12.75;83.69;100456.73;99658;1286;109710;-78
2022/10/30 05:34:37;;;;;;;31.60;18.90;;;;;;;12.73;83.81;100456.45;99655;1292;108862;-78
2022/10/30 05:37:04;;;;;;;27.80;17.40;;;;;;;12.73;83.73;100462.02;99660;1293;138589;-79
2022/10/30 05:39:31;;;;;;;26.20;16.60;;;;;;;12.71;83.68;100463.27;99611;1293;107496;-78
2022/10/30 05:41:58;;;;;;;31.10;17.10;;;;;;;12.71;83.86;100473.23;99476;1293;140401;-78
2022/10/30 05:44:34;;;;;;;25.50;16.80;;;;;;;12.71;83.93;100476.55;99655;1286;109759;-78
2022/10/30 05:47:21;;;;;;;29.70;17.40;;;;;;;12.74;84.00;100473.34;99497;1295;108417;-78
2022/10/30 05:49:51;;;;;;;24.90;17.40;;;;;;;12.76;83.96;100471.19;99610;1293;137888;-78
2022/10/30 05:52:19;;;;;;;30.80;16.90;;;;;;;12.77;83.92;100472.17;99702;1288;108573;-78
2022/10/30 05:54:47;;;;;;;26.00;18.60;;;;;;;12.80;83.97;100473.46;99644;1294;138759;-78
2022/10/30 05:57:20;;;;;;;28.00;17.70;;;;;;;12.81;83.92;100474.30;99558;1288;109829;-78
2022/10/30 05:59:47;;;;;;;31.20;18.40;;;;;;;12.80;83.89;100474.34;99396;1292;137909;-78
2022/10/30 06:02:14;;;;;;;31.00;19.40;;;;;;;12.79;83.85;100475.95;99632;1292;97822;-78
2022/10/30 06:04:41;;;;;;;28.70;17.70;;;;;;;12.77;83.82;100473.59;99506;1296;107914;-79
2022/10/30 06:07:11;;;;;;;29.90;17.10;;;;;;;12.73;83.71;100464.11;99431;1289;138534;-78
2022/10/30 06:09:38;;;;;;;24.70;18.20;;;;;;;12.73;83.93;100456.79;99626;1296;109159;-78
2022/10/30 06:12:24;;;;;;;27.60;16.60;;;;;;;12.71;83.89;100454.92;99510;1286;138567;-78
2022/10/30 06:15:12;;;;;;;23.00;17.20;;;;;;;12.70;84.03;100451.83;99627;1286;96343;-78
2022/10/30 06:17:39;;;;;;;27.80;17.10;;;;;;;12.72;84.08;100447.23;99532;1300;140064;-78
2022/10/30 06:20:26;;;;;;;24.60;16.60;;;;;;;12.75;84.17;100440.84;99678;1286;96478;-81
2022/10/30 06:23:12;;;;;;;26.90;16.40;;;;;;;12.77;84.00;100435.36;99658;1289;108606;-78
2022/10/30 06:25:49;;;;;;;25.30;16.70;;;;;;;12.80;84.09;100441.54;99437;1295;138616;-79
2022/10/30 06:28:40;;;;;;;29.40;18.50;;;;;;;12.85;84.02;100445.70;99629;1295;98190;-72
2022/10/30 06:31:08;;;;;;;28.20;16.30;;;;;;;12.90;84.10;100452.45;99507;1296;138232;-72
2022/10/30 06:33:37;;;;;;;29.60;16.70;;;;;;;12.99;84.15;100450.05;99580;1287;96478;-73
2022/10/30 06:36:21;;;;;;;25.50;15.70;;;;;;;13.06;83.76;100450.63;99411;1283;139866;-73
2022/10/30 06:38:48;;;;;;;24.60;17.50;;;;;;;13.11;83.67;100451.82;99523;1295;108518;-73
2022/10/30 06:41:18;;;;;;;25.90;16.30;;;;;;;13.17;83.45;100460.16;99626;1295;96771;-73
2022/10/30 06:43:45;;;;;;;29.20;18.20;;;;;;;13.25;83.66;100460.55;99576;1299;137539;-76
2022/10/30 06:46:23;;;;;;;28.30;17.50;;;;;;;13.32;83.27;100463.24;99511;1288;96516;-75
2022/10/30 06:48:56;;;;;;;30.00;17.60;;;;;;;13.34;83.14;100465.64;99479;1296;137841;-76
2022/10/30 06:51:25;;;;;;;28.10;17.60;;;;;;;13.34;82.91;100471.91;99763;1286;107338;-76
2022/10/30 06:53:53;;;;;;;25.00;16.40;;;;;;;13.34;83.04;100474.73;99392;1295;139452;-79
2022/10/30 06:56:56;;;;;;;24.70;16.00;;;;;;;13.34;82.69;100473.69;99693;1286;108826;-77
2022/10/30 06:59:50;;;;;;;25.40;16.70;;;;;;;13.34;82.78;100481.17;99484;1287;139139;-79
2022/10/30 07:02:26;;;;;;;25.50;17.70;;;;;;;13.37;82.86;100484.91;99670;1292;110088;-81
2022/10/30 07:04:56;;;;;;;28.60;17.30;;;;;;;13.39;82.73;100483.42;99596;1295;109116;-78
2022/10/30 07:07:24;;;;;;;25.80;16.50;;;;;;;13.39;82.62;100486.20;99486;1289;139976;-78
2022/10/30 07:09:51;;;;;;;28.50;17.20;;;;;;;13.41;82.62;100485.09;99502;1303;107612;-75
2022/10/30 07:12:26;;;;;;;21.40;15.90;;;;;;;13.42;82.69;100492.17;99486;1296;139811;-78
2022/10/30 07:14:59;;;;;;;25.60;17.70;;;;;;;13.47;82.73;100484.83;99797;1295;109380;-75
2022/10/30 07:18:07;;;;;;;26.20;16.50;;;;;;;13.52;82.64;100469.77;99615;1292;138605;-76
2022/10/30 07:20:36;;;;;;;24.10;16.40;;;;;;;13.59;82.55;100475.25;99543;1289;96516;-78
2022/10/30 07:23:03;;;;;;;25.50;16.60;;;;;;;13.65;82.47;100485.66;99548;1289;106735;-77
2022/10/30 07:25:31;;;;;;;25.50;16.70;;;;;;;13.71;82.35;100484.17;99596;1286;139013;-77
2022/10/30 07:28:39;;;;;;;24.00;16.80;;;;;;;13.71;81.99;100481.91;99655;1286;110298;-78
2022/10/30 07:31:39;;;;;;;23.90;17.60;;;;;;;13.70;81.95;100482.84;99541;1292;139520;-78
2022/10/30 07:34:34;;;;;;;25.90;16.60;;;;;;;13.71;82.09;100482.81;99548;1293;97066;-79
2022/10/30 07:37:19;;;;;;;23.00;15.60;;;;;;;13.71;81.96;100476.67;99232;1296;138574;-74
2022/10/30 07:39:59;;;;;;;26.00;16.00;;;;;;;13.74;82.01;100471.48;99281;1286;96524;-73
2022/10/30 07:42:46;;;;;;;23.40;16.70;;;;;;;13.82;82.17;100468.89;99322;1293;138495;-75
2022/10/30 07:45:33;;;;;;;23.00;15.00;;;;;;;13.90;81.94;100461.03;99447;1290;109062;-75
2022/10/30 07:48:18;;;;;;;23.60;16.00;;;;;;;13.99;81.81;100461.17;99520;1295;139509;-73
2022/10/30 07:50:56;;;;;;;24.50;15.60;;;;;;;14.04;81.79;100467.77;99506;1295;107629;-73
2022/10/30 07:53:22;;;;;;;22.90;15.80;;;;;;;14.12;81.87;100467.94;99447;1303;96386;-73
2022/10/30 07:55:50;;;;;;;24.80;14.90;;;;;;;14.19;81.52;100471.16;99372;1302;138810;-73
2022/10/30 07:58:36;;;;;;;25.60;16.70;;;;;;;14.24;81.48;100472.84;99599;1300;107997;-73
2022/10/30 08:01:33;;;;;;;27.40;16.60;;;;;;;14.26;81.14;100475.72;100994;1301;137719;-74
2022/10/30 08:04:12;;;;;;;23.90;15.60;;;;;;;14.28;80.97;100478.98;101040;1295;107461;-75
2022/10/30 08:06:41;;;;;;;21.20;14.40;;;;;;;14.27;80.82;100482.34;100898;1303;138426;-74
2022/10/30 08:09:25;;;;;;;25.30;15.10;;;;;;;14.29;80.82;100482.05;101097;1296;109762;-74
2022/10/30 08:11:52;;;;;;;22.00;15.00;;;;;;;14.33;80.68;100486.25;100899;1302;138901;-74
2022/10/30 08:14:19;;;;;;;23.00;13.90;;;;;;;14.36;80.53;100487.71;101005;1300;94558;-76
2022/10/30 08:16:46;;;;;;;21.10;14.20;;;;;;;14.43;80.54;100482.37;101021;1296;106794;-76
2022/10/30 08:19:14;;;;;;;23.70;14.30;;;;;;;14.51;80.44;100480.06;100011;1299;143398;-75
2022/10/30 08:21:41;;;;;;;19.10;13.40;;;;;;;14.57;79.96;100474.56;99518;1293;110227;-77
2022/10/30 08:24:12;;;;;;;22.10;15.20;;;;;;;14.66;80.02;100472.91;99487;1293;137894;-74
2022/10/30 08:26:40;;;;;;;21.30;14.80;;;;;;;14.78;79.64;100470.98;99576;1289;97149;-73
2022/10/30 08:29:09;;;;;;;28.40;16.40;;;;;;;14.88;79.59;100477.68;99498;1296;107894;-76
2022/10/30 08:31:37;;;;;;;26.70;15.60;;;;;;;14.98;79.42;100487.19;101027;1292;138963;-75
2022/10/30 08:34:22;;;;;;;23.80;15.90;;;;;;;15.09;79.37;100491.57;101214;1293;110578;-75
2022/10/30 08:36:53;;;;;;;25.60;15.30;;;;;;;15.16;78.90;100492.13;100901;1296;138476;-74
2022/10/30 08:39:21;;;;;;;23.60;14.80;;;;;;;15.19;78.33;100491.31;101015;1303;94590;-74
2022/10/30 08:42:20;;;;;;;24.00;13.70;;;;;;;15.20;77.93;100496.31;101043;1293;138379;-74
2022/10/30 08:44:48;;;;;;;22.80;14.50;;;;;;;15.22;77.77;100494.83;101058;1301;94560;-72
2022/10/30 08:47:33;;;;;;;23.40;14.20;;;;;;;15.24;77.66;100495.45;101003;1293;138845;-73
2022/10/30 08:50:01;;;;;;;21.00;14.00;;;;;;;15.27;77.76;100497.75;100962;1303;108799;-74
2022/10/30 08:52:46;;;;;;;22.00;14.80;;;;;;;15.30;77.66;100493.27;100042;1296;96499;-74
2022/10/30 08:55:20;;;;;;;27.40;15.30;;;;;;;15.40;77.78;100482.41;99395;1292;138895;-72
2022/10/30 08:57:47;;;;;;;22.50;15.30;;;;;;;15.48;77.32;100472.05;99388;1296;96478;-73
2022/10/30 09:00:15;;;;;;;21.10;14.20;;;;;;;15.51;77.06;100467.33;99296;1302;139278;-72
2022/10/30 09:03:00;;;;;;;21.10;15.00;;;;;;;15.50;76.52;100470.91;99451;1283;106990;-73
2022/10/30 09:05:47;;;;;;;26.40;15.40;;;;;;;15.46;76.45;100470.56;99389;1295;137959;-73
2022/10/30 09:08:16;;;;;;;25.40;15.20;;;;;;;15.41;76.04;100471.30;99428;1286;106675;-74
2022/10/30 09:11:33;;;;;;;22.60;14.80;;;;;;;15.39;76.29;100489.80;99123;1300;138636;-74
2022/10/30 09:14:00;;;;;;;24.00;13.90;;;;;;;15.37;76.30;100486.23;99307;1298;110207;-73
2022/10/30 09:16:27;;;;;;;23.40;14.10;;;;;;;15.35;76.44;100488.08;99378;1288;108211;-74
2022/10/30 09:19:13;;;;;;;18.20;12.80;;;;;;;15.35;76.24;100486.66;99205;1294;138711;-72
2022/10/30 09:21:44;;;;;;;18.10;14.10;;;;;;;15.34;75.95;100487.77;99415;1293;107227;-73
2022/10/30 09:24:11;;;;;;;20.60;13.90;;;;;;;15.32;75.94;100486.30;99290;1299;137751;-72
2022/10/30 09:26:38;;;;;;;20.50;14.10;;;;;;;15.30;75.90;100479.92;99465;1292;110662;-74
2022/10/30 09:29:26;;;;;;;22.10;14.90;;;;;;;15.24;75.78;100481.98;99446;1292;107588;-75
2022/10/30 09:31:53;;;;;;;23.50;14.30;;;;;;;15.19;75.93;100479.73;99571;1295;96514;-74
2022/10/30 09:34:40;;;;;;;24.30;15.00;;;;;;;15.19;75.97;100487.48;99458;1292;107689;-74
2022/10/30 09:37:19;;;;;;;24.70;14.30;;;;;;;15.14;75.93;100493.50;99198;1294;137801;-75
2022/10/30 09:39:48;;;;;;;18.00;13.20;;;;;;;15.09;75.90;100486.19;99219;1287;108662;-74
2022/10/30 09:42:44;;;;;;;;;;;;;;;15.05;76.05;100487.02;99273;1294;139656;-74
2022/10/30 09:45:43;;;;;;;21.40;14.70;;;;;;;15.03;76.25;100495.21;99389;1301;96525;-77
2022/10/30 09:48:34;;;;;;;20.50;13.60;;;;;;;15.04;76.27;100499.17;99270;1296;138451;-77
2022/10/30 09:51:18;;;;;;;20.40;13.30;;;;;;;15.11;76.35;100503.95;99494;1303;96507;-75
2022/10/30 09:54:02;;;;;;;21.20;14.20;;;;;;;15.20;76.12;100504.58;99453;1293;139376;-79
2022/10/30 09:56:38;;;;;;;20.00;13.80;;;;;;;15.23;75.81;100500.59;99424;1295;107159;-74
2022/10/30 09:59:14;;;;;;;20.40;14.40;;;;;;;15.25;75.76;100498.89;99405;1296;96490;-77
2022/10/30 10:01:46;;;;;;;;;;;;;;;15.28;75.59;100492.98;99387;1293;139142;-77
2022/10/30 10:04:25;;;;;;;23.50;14.30;;;;;;;15.30;75.52;100491.48;99547;1300;96482;-76
2022/10/30 10:07:20;;;;;;;25.20;14.10;;;;;;;15.37;75.42;100492.00;99499;1301;137683;-77
2022/10/30 10:10:21;;;;;;;20.20;13.30;;;;;;;15.39;75.23;100490.35;99476;1295;107397;-77
2022/10/30 10:13:30;;;;;;;21.40;14.00;;;;;;;15.45;75.32;100488.30;99451;1295;137825;-77
2022/10/30 10:15:59;;;;;;;26.40;13.80;;;;;;;15.58;75.23;100486.29;99486;1293;108104;-77
2022/10/30 10:18:31;;;;;;;19.80;12.70;;;;;;;15.67;74.98;100486.55;99341;1303;139881;-77
2022/10/30 10:21:13;;;;;;;15.90;12.40;;;;;;;15.70;74.55;100485.34;99667;1293;108822;-77
2022/10/30 10:23:48;;;;;;;19.70;12.90;;;;;;;15.73;74.44;100485.75;99378;1293;137878;-78
2022/10/30 10:26:25;;;;;;;20.00;12.60;;;;;;;15.75;74.32;100486.17;99592;1291;96981;-79
2022/10/30 10:29:07;;;;;;;21.40;13.10;;;;;;;15.76;74.12;100490.84;99518;1301;107842;-80
2022/10/30 10:31:46;;;;;;;21.70;12.30;;;;;;;15.79;73.97;100494.72;100310;1285;137717;-79
2022/10/30 10:34:35;;;;;;;22.20;12.60;;;;;;;15.82;73.75;100495.11;101145;1295;109181;-78
2022/10/30 10:37:31;;;;;;;21.50;12.20;;;;;;;15.93;74.37;100497.19;100984;1291;138159;-78
2022/10/30 10:43:09;;;;;;;16.60;12.00;;;;;;;16.30;74.25;100492.09;96671;1337;636625;-78
2022/10/30 10:45:46;;;;;;;21.80;11.40;;;;;;;16.37;73.50;100487.73;98956;1312;94434;-77
2022/10/30 10:48:45;;;;;;;18.10;10.70;;;;;;;16.41;73.15;100483.66;98844;1307;137165;-77
2022/10/30 10:51:33;;;;;;;16.90;11.70;;;;;;;16.38;72.53;100474.88;98921;1294;95207;-80
2022/10/30 10:54:03;;;;;;;19.00;10.10;;;;;;;16.34;72.42;100471.39;100413;1299;138866;-79
2022/10/30 10:56:51;;;;;;;16.20;9.60;;;;;;;16.27;72.11;100472.08;100653;1301;112577;-79
2022/10/30 10:59:41;;;;;;;15.60;10.10;;;;;;;16.21;71.91;100475.90;100726;1301;137156;-78
2022/10/30 11:02:29;;;;;;;24.70;10.90;;;;;;;16.20;71.97;100474.58;100773;1302;106901;-81
2022/10/30 11:05:05;;;;;;;17.00;9.70;;;;;;;16.24;72.03;100477.33;100717;1301;92653;-81
2022/10/30 11:07:38;;;;;;;14.50;9.90;;;;;;;16.28;71.98;100470.98;100626;1306;140533;-81
2022/10/30 11:10:25;;;;;;;15.80;8.50;;;;;;;16.34;71.92;100472.44;100813;1299;107448;-81
2022/10/30 11:13:13;;;;;;;11.60;7.40;;;;;;;16.42;71.20;100468.34;100678;1300;137471;-81
2022/10/30 11:15:50;;;;;;;13.70;7.20;;;;;;;16.48;71.13;100469.23;100663;1309;108215;-82
2022/10/30 11:18:35;;;;;;;12.20;6.00;;;;;;;16.56;70.62;100463.36;100374;1295;137322;-82
2022/10/30 11:21:22;;;;;;;10.30;5.20;;;;;;;16.71;70.22;100459.23;99642;1298;111016;-82
2022/10/30 11:23:50;;;;;;;12.40;6.40;;;;;;;16.89;70.24;100459.68;99379;1295;138708;-81
2022/10/30 11:26:32;;;;;;;11.90;6.50;;;;;;;17.06;70.20;100461.36;99643;1287;95101;-81
2022/10/30 11:29:02;;;;;;;12.30;6.10;;;;;;;17.23;70.42;100462.88;99695;1301;106728;-82
2022/10/30 11:31:46;;;;;;;;;;;;;;;17.49;70.18;100458.36;101228;1294;136936;-83
2022/10/30 11:34:30;;;;;;;9.20;6.40;;;;;;;17.72;69.92;100462.91;101355;1285;108643;-82
2022/10/30 11:36:57;;;;;;;8.60;6.70;;;;;;;18.00;69.85;100454.73;101098;1295;137237;-80
2022/10/30 11:39:26;;;;;;;11.20;6.40;;;;;;;18.28;69.49;100460.46;100058;1292;95127;-80
2022/10/30 11:41:59;;;;;;;7.90;5.20;;;;;;;18.54;68.95;100465.89;99676;1295;138719;-80
2022/10/30 11:44:31;;;;;;;5.70;4.00;;;;;;;18.80;67.57;100463.78;99783;1291;95131;-80
2022/10/30 11:46:59;;;;;;;7.20;4.60;;;;;;;18.97;65.40;100463.39;99811;1291;108856;-79
2022/10/30 11:49:31;;;;;;;10.50;4.60;;;;;;;18.98;65.12;100461.88;99566;1291;138731;-79
2022/10/30 11:51:58;;;;;;;6.40;4.40;;;;;;;18.98;63.81;100458.04;99704;1288;95152;-79
2022/10/30 11:54:28;;;;;;;6.70;4.50;;;;;;;18.98;63.32;100462.60;99629;1291;136807;-79
2022/10/30 11:57:22;;;;;;;5.20;4.30;;;;;;;19.00;62.99;100459.83;99760;1300;95162;-79
2022/10/30 12:00:14;;;;;;;7.10;4.40;;;;;;;18.99;62.28;100461.83;99600;1299;137540;-78
2022/10/30 12:02:45;;;;;;;7.00;4.30;;;;;;;19.02;62.25;100454.61;101337;1292;107743;-79
2022/10/30 12:05:33;;;;;;;16.30;5.40;;;;;;;19.12;62.49;100449.95;101301;1299;94822;-79
2022/10/30 12:08:19;;;;;;;10.90;5.10;;;;;;;19.19;61.12;100443.60;101313;1288;107622;-80
2022/10/30 12:10:57;;;;;;;10.40;4.80;;;;;;;19.24;60.98;100448.28;101307;1285;93655;-78
2022/10/30 12:13:26;;;;;;;4.50;3.90;;;;;;;19.34;61.10;100445.15;100861;1299;137723;-78
2022/10/30 12:16:07;;;;;;;11.20;5.20;;;;;;;19.43;60.34;100443.48;99740;1284;106589;-78
2022/10/30 12:18:39;;;;;;;4.90;3.70;;;;;;;19.45;60.32;100436.36;99607;1302;137159;-78
2022/10/30 12:21:07;;;;;;;6.20;4.20;;;;;;;19.39;59.08;100438.85;99970;1281;108041;-78
2022/10/30 12:23:52;;;;;;;6.10;3.40;;;;;;;19.30;58.88;100434.98;99991;1295;95125;-75
2022/10/30 12:26:20;;;;;;;8.20;4.20;;;;;;;19.37;58.80;100434.35;99865;1283;108926;-74
2022/10/30 12:28:55;;;;;;;5.10;3.50;;;;;;;19.41;58.62;100435.00;99938;1281;107323;-74
2022/10/30 12:31:28;;;;;;;7.70;3.70;;;;;;;19.41;58.72;100432.88;99890;1281;139537;-75
2022/10/30 12:34:12;;;;;;;6.10;4.60;;;;;;;19.33;57.58;100429.14;99951;1287;107735;-75
2022/10/30 12:36:47;;;;;;;6.00;4.50;;;;;;;19.18;57.48;100426.27;99917;1282;138297;-75
2022/10/30 12:39:22;;;;;;;14.20;4.00;;;;;;;19.05;57.35;100429.39;100020;1281;108858;-75
2022/10/30 12:41:56;;;;;;;4.70;3.70;;;;;;;18.96;57.29;100425.74;99674;1285;137856;-75
2022/10/30 12:44:28;;;;;;;4.60;3.10;;;;;;;18.85;56.31;100427.02;100929;1292;95000;-70
2022/10/30 12:47:01;;;;;;;3.90;3.00;;;;;;;18.69;56.15;100428.19;101604;1281;107548;-70
2022/10/30 12:49:50;;;;;;;5.00;3.00;;;;;;;18.52;56.51;100424.31;101472;1289;137976;-70
2022/10/30 12:52:39;;;;;;;4.50;3.90;;;;;;;18.36;56.65;100424.20;101607;1289;108963;-68
2022/10/30 12:55:16;;;;;;;5.30;4.20;;;;;;;18.24;56.64;100424.06;101485;1288;137638;-68
2022/10/30 12:57:49;;;;;;;5.50;4.40;;;;;;;18.11;56.82;100420.14;101626;1288;93596;-68
2022/10/30 13:00:20;;;;;;;4.90;3.70;;;;;;;17.97;56.67;100421.14;101522;1288;137796;-69
2022/10/30 13:02:55;;;;;;;6.00;4.30;;;;;;;17.84;56.81;100420.00;101528;1289;94269;-70
2022/10/30 13:05:30;;;;;;;8.20;6.30;;;;;;;17.74;57.34;100417.23;101536;1281;108845;-67
2022/10/30 13:08:06;;;;;;;8.50;6.70;;;;;;;17.67;57.16;100412.56;101475;1289;136933;-69
2022/10/30 13:10:38;;;;;;;5.10;4.00;;;;;;;17.60;57.26;100404.70;101634;1296;94457;-70
2022/10/30 13:13:15;;;;;;;4.10;3.70;;;;;;;17.54;57.39;100414.00;101527;1286;137248;-71
2022/10/30 13:15:48;;;;;;;6.30;3.60;;;;;;;17.47;57.40;100410.34;101640;1291;93193;-71
2022/10/30 13:18:20;;;;;;;5.40;4.00;;;;;;;17.40;57.52;100406.85;101574;1288;137009;-71
2022/10/30 13:21:01;;;;;;;5.40;4.10;;;;;;;17.32;57.74;100412.67;100473;1287;107482;-71
2022/10/30 13:23:42;;;;;;;4.80;3.30;;;;;;;17.19;57.73;100409.34;100023;1282;95113;-71
2022/10/30 13:26:20;;;;;;;3.50;2.90;;;;;;;17.04;58.23;100416.35;99714;1281;108989;-71
2022/10/30 13:29:03;;;;;;;5.70;3.10;;;;;;;16.91;58.15;100414.97;99819;1280;95806;-71
2022/10/30 13:31:41;;;;;;;3.30;2.30;;;;;;;16.76;58.28;100412.28;99630;1281;136908;-69
2022/10/30 13:34:31;;;;;;;4.00;2.50;;;;;;;16.66;58.77;100410.86;99917;1288;108273;-77
2022/10/30 13:37:08;;;;;;;3.00;2.60;;;;;;;16.53;58.80;100406.48;99894;1287;138017;-79
2022/10/30 13:39:51;;;;;;;3.70;2.50;;;;;;;16.41;59.22;100401.73;101487;1296;107681;-82
2022/10/30 13:42:47;;;;;;;5.20;3.10;;;;;;;16.27;59.60;100405.92;101288;1289;137476;-78
2022/10/30 13:45:39;;;;;;;4.90;3.20;;;;;;;16.15;60.20;100403.41;101266;1295;108180;-78
2022/10/30 13:48:18;;;;;;;5.50;3.70;;;;;;;16.02;60.47;100406.56;101426;1295;138460;-78
2022/10/30 13:51:06;;;;;;;6.30;3.90;;;;;;;15.91;61.07;100404.70;101586;1288;93358;-78
2022/10/30 13:53:38;;;;;;;6.20;3.60;;;;;;;15.80;61.28;100402.99;101579;1287;108261;-78
2022/10/30 13:56:15;;;;;;;8.80;4.00;;;;;;;15.67;61.66;100405.39;100393;1285;95007;-78
2022/10/30 13:58:51;;;;;;;6.00;3.90;;;;;;;15.57;62.04;100406.38;100007;1272;107007;-78
2022/10/30 14:01:46;;;;;;;7.50;4.60;;;;;;;15.49;62.28;100408.40;99894;1285;137306;-78
2022/10/30 14:04:19;;;;;;;7.60;4.50;;;;;;;15.41;62.73;100410.16;99978;1295;95114;-78
2022/10/30 14:06:52;;;;;;;6.10;3.70;;;;;;;15.34;63.14;100412.08;99905;1294;137547;-78
2022/10/30 14:09:30;;;;;;;7.90;4.10;;;;;;;15.28;63.35;100409.07;99912;1289;95138;-74
2022/10/30 14:12:00;;;;;;;5.30;3.60;;;;;;;15.23;63.65;100406.88;100798;1289;138129;-76
2022/10/30 14:14:47;;;;;;;6.40;3.60;;;;;;;15.20;63.94;100409.27;101554;1287;107411;-75
2022/10/30 14:17:16;;;;;;;7.10;4.10;;;;;;;15.19;64.07;100402.17;101607;1287;93587;-75
2022/10/30 14:20:18;;;;;;;7.10;4.40;;;;;;;15.19;64.30;100404.77;101466;1288;138139;-76
2022/10/30 14:23:04;;;;;;;6.70;4.20;;;;;;;15.18;64.27;100400.11;101575;1288;93248;-74
2022/10/30 14:25:31;;;;;;;5.40;4.30;;;;;;;15.15;64.46;100398.17;101478;1289;137042;-74
2022/10/30 14:27:58;;;;;;;6.20;4.10;;;;;;;15.11;64.48;100393.24;101552;1288;107004;-74
2022/10/30 14:30:28;;;;;;;7.60;4.40;;;;;;;15.08;64.70;100394.95;100377;1289;137228;-72
2022/10/30 14:33:40;;;;;;;7.40;4.60;;;;;;;15.05;64.95;100397.02;99986;1287;107397;-72
2022/10/30 14:36:18;;;;;;;8.80;4.70;;;;;;;15.03;65.15;100400.47;99842;1288;137150;-72
2022/10/30 14:38:54;;;;;;;6.80;4.50;;;;;;;15.00;65.26;100394.30;99866;1289;108216;-74
2022/10/30 14:41:51;;;;;;;8.40;4.40;;;;;;;14.97;65.39;100391.31;99880;1281;107216;-74
2022/10/30 14:44:46;;;;;;;7.50;4.80;;;;;;;14.92;65.46;100397.14;99904;1289;96496;-74
2022/10/30 14:47:44;;;;;;;7.00;4.40;;;;;;;14.87;65.59;100413.31;99874;1289;108474;-73
2022/10/30 14:50:53;;;;;;;7.00;4.30;;;;;;;14.82;65.89;100420.02;99884;1285;95273;-75
2022/10/30 14:53:48;;;;;;;6.50;4.60;;;;;;;14.78;66.00;100416.02;99893;1281;108574;-76
2022/10/30 14:56:41;;;;;;;8.50;4.50;;;;;;;14.75;66.16;100390.26;99903;1281;107502;-76